METAR Luftfahrt Wetterdaten     EDDN Nuremberg Airport
Temperatur
10°C Temperatur
9°C Taupunkt
94% Feuchtigkeit



Wind
8 KM/S
5 MPS
2 M/S
4 KTS



110°
OSO
Aktuelle Wetterlage

Nebel Nebel
Luftdruck 1017.95 (hPa) - 30.06 (inHg)
Sichtweite 1.1 (Meile) - 1.8 (Km)
Flughafen
Flughafen Code EDDN

Position : Nuremberg Airport
Entfernung: 10 (Km)

Metar:
EDDN 260150Z AUTO 11004KT 1800 1000 R10/1800N BR NSC 10/09 Q1018

Zeit: 26-05-2024 03:50 CEST